createdAt,value
2024-05-09T00:00:15.505Z,9.69
2024-05-09T00:01:26.517Z,9.69
2024-05-09T00:02:29.177Z,9.72
2024-05-09T00:03:34.622Z,9.71
2024-05-09T00:04:37.479Z,9.77
2024-05-09T00:05:44.323Z,9.80
2024-05-09T00:06:47.167Z,9.81
2024-05-09T00:07:52.422Z,9.82
2024-05-09T00:08:55.092Z,9.80
2024-05-09T00:10:00.316Z,9.78
2024-05-09T00:11:03.077Z,9.76
2024-05-09T00:12:09.039Z,9.73
2024-05-09T00:13:11.779Z,9.73
2024-05-09T00:14:17.339Z,9.73
2024-05-09T00:15:20.007Z,9.80
2024-05-09T00:16:27.852Z,9.82
2024-05-09T00:17:30.681Z,9.68
2024-05-09T00:18:36.141Z,9.64
2024-05-09T00:19:38.959Z,9.61
2024-05-09T00:20:44.386Z,9.64
2024-05-09T00:21:47.016Z,9.71
2024-05-09T00:22:52.732Z,9.73
2024-05-09T00:23:55.634Z,9.68
2024-05-09T00:25:00.886Z,9.69
2024-05-09T00:26:03.586Z,9.65
2024-05-09T00:27:11.287Z,9.65
2024-05-09T00:28:14.571Z,9.64
2024-05-09T00:29:19.843Z,9.63
2024-05-09T00:30:31.575Z,9.68
2024-05-09T00:31:43.027Z,9.67
2024-05-09T00:32:45.773Z,9.70
2024-05-09T00:33:51.224Z,9.69
2024-05-09T00:34:53.962Z,9.63
2024-05-09T00:35:59.190Z,9.63
2024-05-09T00:37:01.859Z,9.61
2024-05-09T00:38:07.572Z,9.61
2024-05-09T00:39:10.319Z,9.62
2024-05-09T00:40:22.962Z,9.59
2024-05-09T00:41:36.293Z,9.57
2024-05-09T00:42:39.177Z,9.57
2024-05-09T00:43:44.538Z,9.59
2024-05-09T00:44:47.155Z,9.60
2024-05-09T00:45:53.716Z,9.60
2024-05-09T00:46:59.218Z,9.58
2024-05-09T00:48:09.425Z,9.58
2024-05-09T00:49:13.788Z,9.62
2024-05-09T00:50:25.899Z,9.57
2024-05-09T00:51:36.769Z,9.54
2024-05-09T00:52:42.874Z,9.54
2024-05-09T00:53:46.449Z,9.54
2024-05-09T00:54:51.712Z,9.55
2024-05-09T00:55:57.645Z,9.58
2024-05-09T00:57:03.556Z,9.54
2024-05-09T00:58:08.038Z,9.55
2024-05-09T00:59:13.303Z,9.54
2024-05-09T01:00:26.083Z,9.52
2024-05-09T01:01:36.671Z,9.54
2024-05-09T01:02:42.030Z,9.53
2024-05-09T01:03:49.571Z,9.56
2024-05-09T01:04:53.633Z,9.60
2024-05-09T01:05:58.957Z,9.54
2024-05-09T01:07:01.653Z,9.53
2024-05-09T01:08:07.496Z,9.54
2024-05-09T01:09:10.393Z,9.49
2024-05-09T01:10:17.448Z,9.49
2024-05-09T01:11:36.798Z,9.45
2024-05-09T01:12:39.478Z,9.47
2024-05-09T01:13:44.972Z,9.47
2024-05-09T01:14:47.603Z,9.53
2024-05-09T01:15:54.028Z,9.55
2024-05-09T01:16:56.827Z,9.53
2024-05-09T01:18:07.640Z,9.50
2024-05-09T01:19:20.614Z,9.58
2024-05-09T01:20:36.875Z,9.60
2024-05-09T01:21:44.781Z,9.59
2024-05-09T01:22:50.908Z,9.55
2024-05-09T01:23:56.184Z,9.49
2024-05-09T01:25:01.416Z,9.50
2024-05-09T01:26:04.254Z,9.49
2024-05-09T01:27:09.497Z,9.51
2024-05-09T01:28:12.436Z,9.52
2024-05-09T01:29:17.952Z,9.53
2024-05-09T01:30:24.562Z,9.55
2024-05-09T01:31:36.596Z,9.57
2024-05-09T01:32:39.321Z,9.65
2024-05-09T01:33:45.167Z,9.58
2024-05-09T01:34:47.927Z,9.58
2024-05-09T01:35:53.272Z,9.58
2024-05-09T01:36:56.282Z,9.58
2024-05-09T01:38:01.588Z,9.55
2024-05-09T01:39:06.811Z,9.58
2024-05-09T01:40:18.414Z,9.60
2024-05-09T01:41:25.071Z,9.57
2024-05-09T01:42:30.348Z,9.60
2024-05-09T01:43:33.064Z,9.60
2024-05-09T01:44:38.388Z,9.65
2024-05-09T01:45:41.589Z,9.66
2024-05-09T01:46:46.980Z,9.65
2024-05-09T01:47:49.781Z,9.68
2024-05-09T01:48:55.208Z,9.60
2024-05-09T01:49:57.875Z,9.57
2024-05-09T01:51:03.207Z,9.56
2024-05-09T01:52:05.893Z,9.55
2024-05-09T01:53:11.713Z,9.55
2024-05-09T01:54:17.251Z,9.53
2024-05-09T01:55:22.653Z,9.57
2024-05-09T01:56:27.396Z,9.55
2024-05-09T01:57:33.365Z,9.54
2024-05-09T01:58:36.902Z,9.56
2024-05-09T01:59:42.106Z,9.56
2024-05-09T02:00:45.017Z,9.58
2024-05-09T02:01:56.732Z,9.59
2024-05-09T02:03:00.666Z,9.62
2024-05-09T02:04:06.387Z,9.60
2024-05-09T02:05:09.543Z,9.58
2024-05-09T02:06:15.023Z,9.60
2024-05-09T02:07:18.075Z,9.58
2024-05-09T02:08:24.546Z,9.57
2024-05-09T02:09:29.865Z,9.56
2024-05-09T02:10:35.108Z,9.52
2024-05-09T02:11:41.782Z,9.54
2024-05-09T02:12:47.119Z,9.57
2024-05-09T02:13:49.746Z,9.58
2024-05-09T02:14:55.065Z,9.60
2024-05-09T02:15:57.708Z,9.62
2024-05-09T02:17:02.966Z,9.62
2024-05-09T02:18:06.360Z,9.65
2024-05-09T02:19:11.900Z,9.64
2024-05-09T02:20:22.561Z,9.69
2024-05-09T02:21:34.251Z,9.65
2024-05-09T02:22:36.844Z,9.65
2024-05-09T02:23:42.081Z,9.64
2024-05-09T02:24:47.357Z,9.64
2024-05-09T02:25:52.589Z,9.64
2024-05-09T02:26:55.206Z,9.62
2024-05-09T02:28:00.634Z,9.63
2024-05-09T02:29:03.361Z,9.60
2024-05-09T02:30:18.570Z,9.55
2024-05-09T02:31:28.510Z,9.53
2024-05-09T02:32:33.859Z,9.51
2024-05-09T02:33:36.764Z,9.53
2024-05-09T02:34:39.507Z,9.53
2024-05-09T02:35:45.597Z,9.51
2024-05-09T02:36:48.245Z,9.52
2024-05-09T02:37:50.880Z,9.49
2024-05-09T02:38:56.070Z,9.53
2024-05-09T02:40:01.323Z,9.53
2024-05-09T02:41:04.257Z,9.52
2024-05-09T02:42:09.442Z,9.56
2024-05-09T02:43:13.062Z,9.54
2024-05-09T02:44:15.653Z,9.52
2024-05-09T02:45:18.322Z,9.51
2024-05-09T02:46:20.997Z,9.52
2024-05-09T02:47:26.624Z,9.50
2024-05-09T02:48:29.541Z,9.51
2024-05-09T02:49:32.215Z,9.51
2024-05-09T02:50:39.700Z,9.51
2024-05-09T02:51:42.894Z,9.53
2024-05-09T02:52:45.570Z,9.50
2024-05-09T02:53:48.184Z,9.48
2024-05-09T02:54:51.058Z,9.50
2024-05-09T02:55:59.069Z,9.45
2024-05-09T02:57:01.720Z,9.44
2024-05-09T02:58:04.739Z,9.43
2024-05-09T02:59:10.262Z,9.44
2024-05-09T03:00:19.014Z,9.48
2024-05-09T03:01:28.599Z,9.45
2024-05-09T03:02:34.202Z,9.48
2024-05-09T03:03:37.237Z,9.51
2024-05-09T03:04:40.124Z,9.44
2024-05-09T03:05:43.142Z,9.43
2024-05-09T03:06:48.563Z,9.43
2024-05-09T03:07:51.215Z,9.48
2024-05-09T03:08:53.840Z,9.43
2024-05-09T03:09:56.422Z,9.44
2024-05-09T03:11:04.355Z,9.49
2024-05-09T03:12:08.445Z,9.46
2024-05-09T03:13:14.156Z,9.44
2024-05-09T03:14:18.173Z,9.44
2024-05-09T03:15:24.499Z,9.42
2024-05-09T03:16:27.271Z,9.44
2024-05-09T03:17:30.037Z,9.42
2024-05-09T03:18:35.500Z,9.39
2024-05-09T03:19:38.375Z,9.38
2024-05-09T03:20:41.180Z,9.42
2024-05-09T03:21:43.798Z,9.41
2024-05-09T03:22:49.036Z,9.42
2024-05-09T03:23:51.680Z,9.43
2024-05-09T03:24:54.489Z,9.44
2024-05-09T03:25:57.217Z,9.44
2024-05-09T03:27:05.165Z,9.51
2024-05-09T03:28:07.891Z,9.45
2024-05-09T03:29:10.667Z,9.45
2024-05-09T03:30:25.898Z,9.42
2024-05-09T03:31:38.332Z,9.39
2024-05-09T03:32:41.175Z,9.39
2024-05-09T03:33:44.025Z,9.38
2024-05-09T03:34:46.764Z,9.39
2024-05-09T03:35:51.980Z,9.37
2024-05-09T03:36:57.206Z,9.39
2024-05-09T03:37:59.841Z,9.37
2024-05-09T03:39:05.186Z,9.41
2024-05-09T03:40:14.453Z,9.38
2024-05-09T03:41:23.374Z,9.38
2024-05-09T03:42:28.864Z,9.41
2024-05-09T03:43:34.165Z,9.40
2024-05-09T03:44:36.794Z,9.37
2024-05-09T03:45:39.457Z,9.40
2024-05-09T03:46:44.824Z,9.41
2024-05-09T03:47:47.572Z,9.38
2024-05-09T03:48:50.271Z,9.36
2024-05-09T03:49:52.901Z,9.37
2024-05-09T03:50:58.175Z,9.38
2024-05-09T03:52:05.043Z,9.38
2024-05-09T03:53:11.632Z,9.42
2024-05-09T03:54:16.954Z,9.43
2024-05-09T03:55:19.552Z,9.39
2024-05-09T03:56:22.267Z,9.42
2024-05-09T03:57:24.882Z,9.39
2024-05-09T03:58:33.075Z,9.43
2024-05-09T03:59:36.895Z,9.42
2024-05-09T04:00:40.385Z,9.42
2024-05-09T04:01:43.211Z,9.45
2024-05-09T04:02:50.743Z,9.45
2024-05-09T04:03:53.518Z,9.47
2024-05-09T04:04:56.212Z,9.41
2024-05-09T04:05:59.135Z,9.39
2024-05-09T04:07:04.821Z,9.39
2024-05-09T04:08:07.937Z,9.40
2024-05-09T04:09:10.556Z,9.45
2024-05-09T04:10:21.133Z,9.49
2024-05-09T04:11:33.358Z,9.51
2024-05-09T04:12:36.365Z,9.54
2024-05-09T04:13:41.613Z,9.58
2024-05-09T04:14:44.172Z,9.54
2024-05-09T04:15:49.364Z,9.49
2024-05-09T04:16:52.301Z,9.43
2024-05-09T04:17:55.151Z,9.42
2024-05-09T04:19:00.631Z,9.44
2024-05-09T04:20:03.403Z,9.49
2024-05-09T04:21:07.048Z,9.43
2024-05-09T04:22:10.087Z,9.44
2024-05-09T04:23:16.530Z,9.46
2024-05-09T04:24:19.586Z,9.44
2024-05-09T04:25:22.202Z,9.43
2024-05-09T04:26:24.826Z,9.49
2024-05-09T04:27:30.045Z,9.56
2024-05-09T04:28:32.709Z,9.54
2024-05-09T04:29:38.053Z,9.56
2024-05-09T04:30:41.812Z,9.60
2024-05-09T04:31:47.801Z,9.61
2024-05-09T04:32:51.057Z,9.65
2024-05-09T04:33:53.892Z,9.64
2024-05-09T04:34:56.670Z,9.67
2024-05-09T04:35:59.274Z,9.69
2024-05-09T04:37:04.623Z,9.66
2024-05-09T04:38:07.265Z,9.62
2024-05-09T04:39:09.878Z,9.68
2024-05-09T04:40:23.988Z,9.73
2024-05-09T04:41:33.660Z,9.78
2024-05-09T04:42:36.381Z,9.79
2024-05-09T04:43:41.689Z,9.86
2024-05-09T04:44:47.018Z,9.83
2024-05-09T04:45:51.160Z,9.83
2024-05-09T04:46:53.758Z,9.93
2024-05-09T04:47:59.221Z,9.89
2024-05-09T04:49:02.228Z,9.78
2024-05-09T04:50:08.870Z,9.72
2024-05-09T04:51:14.079Z,9.73
2024-05-09T04:52:19.402Z,9.80
2024-05-09T04:53:22.021Z,9.86
2024-05-09T04:54:33.725Z,9.73
2024-05-09T04:55:39.600Z,9.80
2024-05-09T04:56:45.227Z,9.75
2024-05-09T04:57:48.126Z,9.83
2024-05-09T04:58:51.374Z,9.74
2024-05-09T04:59:56.527Z,9.72
2024-05-09T05:01:01.712Z,9.78
2024-05-09T05:02:04.659Z,9.77
2024-05-09T05:03:10.528Z,9.76
2024-05-09T05:04:15.235Z,9.76
2024-05-09T05:05:20.649Z,9.78
2024-05-09T05:06:23.971Z,9.86
2024-05-09T05:07:26.525Z,9.89
2024-05-09T05:08:32.038Z,9.92
2024-05-09T05:09:35.892Z,9.94
2024-05-09T05:10:39.125Z,10.05
2024-05-09T05:11:41.914Z,9.99
2024-05-09T05:13:03.147Z,10.00
2024-05-09T05:14:10.081Z,9.99
2024-05-09T05:15:15.526Z,9.98
2024-05-09T05:16:20.842Z,9.96
2024-05-09T05:17:23.562Z,10.05
2024-05-09T05:18:27.934Z,10.15
2024-05-09T05:19:31.170Z,10.24
2024-05-09T05:20:34.471Z,10.14
2024-05-09T05:21:39.802Z,10.19
2024-05-09T05:22:43.632Z,10.14
2024-05-09T05:23:46.252Z,10.14
2024-05-09T05:24:48.886Z,10.32
2024-05-09T05:25:55.948Z,10.32
2024-05-09T05:26:58.777Z,10.22
2024-05-09T05:28:01.326Z,10.28
2024-05-09T05:29:06.574Z,10.36
2024-05-09T05:30:17.506Z,10.52
2024-05-09T05:31:26.411Z,10.62
2024-05-09T05:32:29.182Z,10.70
2024-05-09T05:33:34.766Z,10.66
2024-05-09T05:34:37.468Z,10.58
2024-05-09T05:35:41.034Z,10.44
2024-05-09T05:36:46.286Z,10.59
2024-05-09T05:37:48.961Z,10.67
2024-05-09T05:38:52.236Z,10.68
2024-05-09T05:39:54.891Z,10.73
2024-05-09T05:41:00.188Z,10.81
2024-05-09T05:42:03.192Z,10.89
2024-05-09T05:43:06.256Z,10.56
2024-05-09T05:44:14.361Z,10.48
2024-05-09T05:45:17.240Z,10.75
2024-05-09T05:46:19.854Z,10.64
2024-05-09T05:47:25.225Z,10.58
2024-05-09T05:48:30.571Z,10.66
2024-05-09T05:49:33.350Z,10.68
2024-05-09T05:50:38.123Z,10.83
2024-05-09T05:51:41.434Z,10.92
2024-05-09T05:52:46.862Z,10.88
2024-05-09T05:53:49.611Z,11.04
2024-05-09T05:54:52.389Z,11.18
2024-05-09T05:55:55.166Z,11.32
2024-05-09T05:57:00.651Z,11.36
2024-05-09T05:58:03.815Z,11.34
2024-05-09T05:59:06.568Z,11.42
2024-05-09T06:00:15.230Z,11.46
2024-05-09T06:01:26.896Z,11.59
2024-05-09T06:02:33.009Z,11.78
2024-05-09T06:03:35.766Z,11.77
2024-05-09T06:04:41.087Z,11.90
2024-05-09T06:05:46.025Z,11.94
2024-05-09T06:06:49.546Z,11.86
2024-05-09T06:07:54.805Z,11.99
2024-05-09T06:08:57.425Z,11.98
2024-05-09T06:10:00.092Z,12.00
2024-05-09T06:11:03.668Z,11.90
2024-05-09T06:12:09.110Z,11.74
2024-05-09T06:13:14.087Z,11.87
2024-05-09T06:14:17.326Z,12.01
2024-05-09T06:15:19.979Z,11.92
2024-05-09T06:16:25.170Z,11.86
2024-05-09T06:17:27.894Z,12.06
2024-05-09T06:18:33.507Z,12.34
2024-05-09T06:19:36.482Z,12.35
2024-05-09T06:20:43.611Z,12.33
2024-05-09T06:21:46.878Z,12.62
2024-05-09T06:22:49.553Z,12.68
2024-05-09T06:23:53.466Z,12.79
2024-05-09T06:24:58.719Z,12.75
2024-05-09T06:26:01.383Z,12.73
2024-05-09T06:27:06.182Z,12.77
2024-05-09T06:28:11.667Z,12.93
2024-05-09T06:29:14.347Z,12.91
2024-05-09T06:30:25.450Z,12.81
2024-05-09T06:31:35.774Z,12.87
2024-05-09T06:32:38.583Z,12.86
2024-05-09T06:33:44.543Z,12.78
2024-05-09T06:34:47.951Z,12.90
2024-05-09T06:35:57.216Z,12.87
2024-05-09T06:37:00.028Z,12.84
2024-05-09T06:38:02.771Z,13.01
2024-05-09T06:39:05.653Z,12.99
2024-05-09T06:40:12.574Z,13.16
2024-05-09T06:41:17.319Z,13.39
2024-05-09T06:42:20.091Z,13.67
2024-05-09T06:43:22.846Z,13.91
2024-05-09T06:44:28.187Z,14.08
2024-05-09T06:45:30.907Z,13.98
2024-05-09T06:46:33.549Z,14.03
2024-05-09T06:47:38.960Z,14.02
2024-05-09T06:48:44.977Z,13.90
2024-05-09T06:49:47.741Z,14.04
2024-05-09T06:50:51.074Z,13.72
2024-05-09T06:51:56.292Z,13.65
2024-05-09T06:52:58.912Z,13.51
2024-05-09T06:54:01.673Z,13.63
2024-05-09T06:55:04.506Z,13.70
2024-05-09T06:56:10.710Z,13.56
2024-05-09T06:57:13.381Z,13.29
2024-05-09T06:58:16.594Z,13.30
2024-05-09T06:59:19.574Z,13.54
2024-05-09T07:00:30.926Z,13.88
2024-05-09T07:01:40.941Z,13.46
2024-05-09T07:02:43.662Z,13.99
2024-05-09T07:03:51.701Z,14.45
2024-05-09T07:04:54.654Z,14.48
2024-05-09T07:05:57.373Z,14.70
2024-05-09T07:07:04.360Z,14.83
2024-05-09T07:08:07.729Z,15.07
2024-05-09T07:09:10.379Z,15.27
2024-05-09T07:10:22.037Z,15.33
2024-05-09T07:11:31.513Z,15.09
2024-05-09T07:12:34.580Z,14.87
2024-05-09T07:13:40.093Z,15.10
2024-05-09T07:14:42.802Z,15.20
2024-05-09T07:15:45.536Z,15.21
2024-05-09T07:16:48.706Z,15.19
2024-05-09T07:17:54.133Z,15.23
2024-05-09T07:18:59.659Z,15.28
2024-05-09T07:20:02.528Z,15.36
2024-05-09T07:21:08.927Z,15.54
2024-05-09T07:22:11.592Z,15.09
2024-05-09T07:23:14.759Z,14.99
2024-05-09T07:24:20.430Z,15.09
2024-05-09T07:25:23.002Z,15.16
2024-05-09T07:26:25.731Z,15.13
2024-05-09T07:27:28.378Z,15.14
2024-05-09T07:28:33.650Z,14.85
2024-05-09T07:29:38.450Z,14.70
2024-05-09T07:30:41.526Z,14.63
2024-05-09T07:31:46.749Z,14.70
2024-05-09T07:32:49.634Z,14.83
2024-05-09T07:33:52.600Z,15.11
2024-05-09T07:34:57.909Z,14.94
2024-05-09T07:36:03.200Z,15.29
2024-05-09T07:37:11.080Z,15.51
2024-05-09T07:38:14.053Z,15.23
2024-05-09T07:39:16.729Z,15.55
2024-05-09T07:40:31.557Z,15.38
2024-05-09T07:41:38.219Z,15.28
2024-05-09T07:42:40.911Z,15.24
2024-05-09T07:43:46.622Z,14.95
2024-05-09T07:44:49.223Z,15.21
2024-05-09T07:45:54.464Z,15.47
2024-05-09T07:50:55.720Z,16.05
2024-05-09T07:53:16.931Z,16.64
2024-05-09T07:53:37.207Z,16.42
2024-05-09T07:54:35.297Z,16.48
2024-05-09T07:55:38.181Z,16.82
2024-05-09T07:56:41.044Z,16.41
2024-05-09T07:57:46.558Z,16.17
2024-05-09T07:58:50.794Z,16.43
2024-05-09T07:59:53.561Z,16.53
2024-05-09T08:00:56.433Z,16.26
2024-05-09T08:02:01.893Z,16.61
2024-05-09T08:03:05.116Z,16.03
2024-05-09T08:04:07.913Z,16.12
2024-05-09T08:05:13.285Z,16.15
2024-05-09T08:06:18.774Z,16.15
2024-05-09T08:07:22.089Z,16.06
2024-05-09T08:08:27.668Z,16.19
2024-05-09T08:09:30.269Z,16.23
2024-05-09T08:10:35.144Z,16.38
2024-05-09T08:11:37.895Z,16.39
2024-05-09T08:12:43.253Z,16.42
2024-05-09T08:13:45.859Z,16.09
2024-05-09T08:14:48.427Z,16.45
2024-05-09T08:15:54.076Z,16.46
2024-05-09T08:16:56.943Z,16.47
2024-05-09T08:18:00.171Z,16.56
2024-05-09T08:19:05.870Z,16.77
2024-05-09T08:20:09.848Z,16.45
2024-05-09T08:21:13.928Z,16.50
2024-05-09T08:22:21.783Z,16.90
2024-05-09T08:23:24.431Z,17.34
2024-05-09T08:24:27.479Z,17.70
2024-05-09T08:25:30.050Z,17.65
2024-05-09T08:26:35.322Z,17.11
2024-05-09T08:27:38.020Z,16.90
2024-05-09T08:28:40.655Z,16.39
2024-05-09T08:29:43.662Z,16.58
2024-05-09T08:30:49.107Z,16.70
2024-05-09T08:31:56.200Z,16.82
2024-05-09T08:32:59.104Z,16.57
2024-05-09T08:34:02.012Z,16.63
2024-05-09T08:35:07.949Z,16.40
2024-05-09T08:36:10.491Z,16.23
2024-05-09T08:37:19.699Z,16.33
2024-05-09T08:38:30.383Z,16.08
2024-05-09T08:39:33.162Z,16.08
2024-05-09T08:40:37.927Z,15.97
2024-05-09T08:41:43.371Z,15.94
2024-05-09T08:42:53.278Z,16.25
2024-05-09T08:43:55.918Z,16.38
2024-05-09T08:44:58.548Z,16.29
2024-05-09T08:46:02.767Z,16.09
2024-05-09T08:47:09.911Z,16.05
2024-05-09T08:48:14.969Z,16.22
2024-05-09T08:49:18.996Z,16.24
2024-05-09T08:50:32.327Z,16.00
2024-05-09T08:51:40.987Z,15.64
2024-05-09T08:52:43.776Z,15.65
2024-05-09T08:53:51.685Z,15.80
2024-05-09T08:54:54.873Z,15.98
2024-05-09T08:56:01.550Z,16.14
2024-05-09T08:57:05.698Z,16.25
2024-05-09T08:58:13.852Z,16.09
2024-05-09T08:59:21.419Z,15.58
2024-05-09T09:00:33.761Z,15.58
2024-05-09T09:01:44.512Z,16.18
2024-05-09T09:02:50.043Z,16.26
2024-05-09T09:03:53.672Z,16.79
2024-05-09T09:05:01.009Z,16.67
2024-05-09T09:06:10.123Z,17.38
2024-05-09T09:07:13.470Z,17.84
2024-05-09T09:08:17.180Z,18.21
2024-05-09T09:09:22.479Z,17.76
2024-05-09T09:10:32.071Z,17.92
2024-05-09T09:11:35.854Z,17.63
2024-05-09T09:12:38.653Z,17.66
2024-05-09T09:13:41.322Z,17.77
2024-05-09T09:14:46.708Z,17.71
2024-05-09T09:15:50.312Z,18.01
2024-05-09T09:16:54.200Z,18.13
2024-05-09T09:17:57.832Z,17.71
2024-05-09T09:19:03.537Z,17.90
2024-05-09T09:20:13.967Z,17.59
2024-05-09T09:21:19.029Z,17.43
2024-05-09T09:22:24.363Z,17.43
2024-05-09T09:23:30.224Z,16.97
2024-05-09T09:24:35.783Z,17.28
2024-05-09T09:25:40.066Z,17.28
2024-05-09T09:26:48.058Z,18.14
2024-05-09T09:27:50.833Z,18.33
2024-05-09T09:28:53.521Z,18.87
2024-05-09T09:29:59.929Z,18.84
2024-05-09T09:31:03.211Z,18.77
2024-05-09T09:32:08.581Z,19.22
2024-05-09T09:33:12.193Z,19.45
2024-05-09T09:34:17.794Z,19.75
2024-05-09T09:35:20.595Z,19.82
2024-05-09T09:36:23.159Z,19.97
2024-05-09T09:37:29.853Z,20.09
2024-05-09T09:38:32.592Z,20.02
2024-05-09T09:39:48.961Z,20.29
2024-05-09T09:40:52.230Z,20.62
2024-05-09T09:41:56.862Z,20.31
2024-05-09T09:43:04.707Z,19.85
2024-05-09T09:44:09.648Z,19.55
2024-05-09T09:45:13.994Z,19.91
2024-05-09T09:46:18.787Z,19.70
2024-05-09T09:47:24.902Z,19.60
2024-05-09T09:48:28.497Z,19.66
2024-05-09T09:49:33.767Z,19.73
2024-05-09T09:50:36.790Z,19.30
2024-05-09T09:51:43.742Z,18.96
2024-05-09T09:52:47.149Z,19.34
2024-05-09T09:53:53.110Z,19.16
2024-05-09T09:54:59.910Z,19.01
2024-05-09T09:56:06.383Z,19.52
2024-05-09T09:57:09.170Z,19.41
2024-05-09T09:58:14.387Z,19.24
2024-05-09T09:59:20.350Z,19.05
2024-05-09T10:00:29.960Z,19.07
2024-05-09T10:01:36.445Z,18.99
2024-05-09T10:02:40.357Z,19.29
2024-05-09T10:03:46.061Z,19.48
2024-05-09T10:04:49.092Z,19.97
2024-05-09T10:05:52.612Z,20.30
2024-05-09T10:07:08.365Z,19.96
2024-05-09T10:08:14.858Z,20.27
2024-05-09T10:09:18.314Z,19.88
2024-05-09T10:10:32.032Z,19.90
2024-05-09T10:11:42.075Z,19.78
2024-05-09T10:13:01.693Z,20.46
2024-05-09T10:14:04.411Z,20.57
2024-05-09T10:15:09.147Z,20.32
2024-05-09T10:16:15.038Z,20.29
2024-05-09T10:17:18.158Z,19.86
2024-05-09T10:18:27.121Z,19.80
2024-05-09T10:19:35.357Z,19.47
2024-05-09T10:20:42.406Z,19.25
2024-05-09T10:21:47.298Z,19.25
2024-05-09T10:22:53.087Z,19.74
2024-05-09T10:23:59.855Z,19.83
2024-05-09T10:25:06.965Z,19.72
2024-05-09T10:26:12.218Z,20.23
2024-05-09T10:27:17.647Z,20.32
2024-05-09T10:28:21.023Z,20.11
2024-05-09T10:29:26.348Z,19.96
2024-05-09T10:30:36.085Z,19.88
2024-05-09T10:31:42.441Z,19.68
2024-05-09T10:32:45.612Z,20.08
2024-05-09T10:33:50.206Z,20.58
2024-05-09T10:35:03.375Z,20.83
2024-05-09T10:36:12.070Z,21.06
2024-05-09T10:37:15.184Z,20.43
2024-05-09T10:38:18.710Z,20.14
2024-05-09T10:39:24.636Z,20.63
2024-05-09T10:40:31.351Z,21.04
2024-05-09T10:41:38.581Z,20.80
2024-05-09T10:42:44.468Z,20.69
2024-05-09T10:43:47.732Z,20.40
2024-05-09T10:44:50.407Z,20.62
2024-05-09T10:45:53.109Z,20.20
2024-05-09T10:46:58.599Z,20.50
2024-05-09T10:48:01.488Z,20.70
2024-05-09T10:49:07.243Z,21.06
2024-05-09T10:50:18.528Z,21.00
2024-05-09T10:51:31.061Z,20.94
2024-05-09T10:52:35.320Z,21.35
2024-05-09T10:53:42.370Z,21.52
2024-05-09T10:54:49.010Z,21.32
2024-05-09T10:56:00.506Z,20.83
2024-05-09T10:57:06.500Z,21.11
2024-05-09T10:58:18.484Z,20.42
2024-05-09T10:59:23.706Z,20.15
2024-05-09T11:00:35.740Z,19.82
2024-05-09T11:01:40.268Z,20.00
2024-05-09T11:02:44.180Z,20.65
2024-05-09T11:03:50.562Z,20.32
2024-05-09T11:04:53.618Z,20.13
2024-05-09T11:05:56.726Z,19.48
2024-05-09T11:07:02.827Z,19.59
2024-05-09T11:08:09.674Z,19.17
2024-05-09T11:09:12.596Z,19.26
2024-05-09T11:10:21.005Z,19.88
2024-05-09T11:11:32.895Z,19.86
2024-05-09T11:12:38.625Z,20.14
2024-05-09T11:13:41.690Z,20.67
2024-05-09T11:14:56.085Z,21.07
2024-05-09T11:16:00.190Z,21.56
2024-05-09T11:17:06.123Z,20.81
2024-05-09T11:18:23.616Z,20.88
2024-05-09T11:19:33.597Z,21.57
2024-05-09T11:20:36.778Z,21.43
2024-05-09T11:21:40.006Z,21.56
2024-05-09T11:22:46.517Z,20.94
2024-05-09T11:23:49.698Z,21.21
2024-05-09T11:24:52.624Z,21.07
2024-05-09T11:25:56.967Z,21.12
2024-05-09T11:27:02.938Z,21.79
2024-05-09T11:28:08.452Z,22.02
2024-05-09T11:29:11.110Z,21.78
2024-05-09T11:30:26.741Z,21.57
2024-05-09T11:31:47.791Z,21.48
2024-05-09T11:32:50.709Z,21.34
2024-05-09T11:33:55.078Z,21.27
2024-05-09T11:34:57.801Z,21.77
2024-05-09T11:36:03.072Z,21.26
2024-05-09T11:37:05.915Z,21.44
2024-05-09T11:38:08.614Z,22.33
2024-05-09T11:39:11.758Z,21.58
2024-05-09T11:40:24.845Z,21.89
2024-05-09T11:41:31.456Z,21.51
2024-05-09T11:42:34.111Z,22.51
2024-05-09T11:43:39.325Z,22.20
2024-05-09T11:44:44.516Z,21.50
2024-05-09T11:45:47.225Z,21.47
2024-05-09T11:46:49.930Z,21.14
2024-05-09T11:47:53.268Z,21.45
2024-05-09T11:48:58.749Z,21.53
2024-05-09T11:50:01.679Z,21.91
2024-05-09T11:51:04.778Z,21.33
2024-05-09T11:52:10.367Z,21.91
2024-05-09T11:53:13.226Z,22.48
2024-05-09T11:54:16.532Z,22.93
2024-05-09T11:55:26.728Z,22.75
2024-05-09T11:56:30.465Z,21.70
2024-05-09T11:57:33.312Z,21.66
2024-05-09T11:58:39.423Z,22.40
2024-05-09T11:59:47.270Z,23.22
2024-05-09T12:00:50.149Z,23.17
2024-05-09T12:01:53.028Z,22.84
2024-05-09T12:02:58.881Z,23.10
2024-05-09T12:04:04.344Z,23.72
2024-05-09T12:05:07.453Z,23.78
2024-05-09T12:06:10.229Z,24.05
2024-05-09T12:07:13.159Z,24.49
2024-05-09T12:08:18.467Z,24.20
2024-05-09T12:09:21.126Z,23.30
2024-05-09T12:11:28.634Z,23.20
2024-05-09T12:12:36.720Z,24.41
2024-05-09T12:13:39.879Z,25.06
2024-05-09T12:14:45.164Z,25.93
2024-05-09T12:15:47.826Z,25.74
2024-05-09T12:16:53.214Z,26.17
2024-05-09T12:17:58.387Z,27.09
2024-05-09T12:19:03.097Z,27.51
2024-05-09T12:20:11.346Z,28.09
2024-05-09T12:21:22.434Z,27.38
2024-05-09T12:22:25.138Z,28.21
2024-05-09T12:23:27.934Z,26.92
2024-05-09T12:24:30.883Z,26.85
2024-05-09T12:25:36.204Z,26.09
2024-05-09T12:26:38.833Z,25.66
2024-05-09T12:27:41.521Z,25.40
2024-05-09T12:28:44.236Z,24.24
2024-05-09T12:29:52.161Z,24.61
2024-05-09T12:30:54.830Z,23.86
2024-05-09T12:31:58.168Z,24.22
2024-05-09T12:33:01.826Z,24.35
2024-05-09T12:34:07.863Z,25.24
2024-05-09T12:35:10.563Z,26.49
2024-05-09T12:36:13.391Z,26.43
2024-05-09T12:37:16.242Z,25.14
2024-05-09T12:38:21.912Z,25.05
2024-05-09T12:39:24.558Z,24.88
2024-05-09T12:40:35.404Z,25.10
2024-05-09T12:41:43.337Z,25.28
2024-05-09T12:42:45.954Z,26.00
2024-05-09T12:43:49.661Z,25.16
2024-05-09T12:44:57.508Z,25.39
2024-05-09T12:46:00.217Z,24.79
2024-05-09T12:47:03.028Z,24.69
2024-05-09T12:48:08.499Z,25.40
2024-05-09T12:49:16.385Z,25.95
2024-05-09T12:50:29.157Z,25.24
2024-05-09T12:51:34.782Z,26.21
2024-05-09T12:52:37.380Z,26.13
2024-05-09T12:53:42.719Z,27.39
2024-05-09T12:54:45.381Z,27.82
2024-05-09T12:55:53.989Z,28.34
2024-05-09T12:57:02.382Z,28.62
2024-05-09T12:58:08.849Z,27.02
2024-05-09T12:59:11.695Z,27.04
2024-05-09T13:00:23.980Z,27.28
2024-05-09T13:01:36.398Z,25.95
2024-05-09T13:02:39.152Z,26.39
2024-05-09T13:03:42.039Z,27.15
2024-05-09T13:04:44.930Z,26.34
2024-05-09T13:05:50.533Z,27.40
2024-05-09T13:06:53.681Z,28.28
2024-05-09T13:07:57.153Z,28.20
2024-05-09T13:09:00.103Z,28.15
2024-05-09T13:10:06.982Z,27.83
2024-05-09T13:11:14.346Z,27.92
2024-05-09T13:12:16.948Z,26.97
2024-05-09T13:13:19.829Z,27.27
2024-05-09T13:14:25.272Z,26.53
2024-05-09T13:15:31.145Z,25.03
2024-05-09T13:16:34.229Z,25.82
2024-05-09T13:17:37.005Z,26.25
2024-05-09T13:18:42.393Z,26.29
2024-05-09T13:19:45.010Z,26.69
2024-05-09T13:20:47.651Z,26.93
2024-05-09T13:21:53.031Z,27.04
2024-05-09T13:22:55.794Z,27.97
2024-05-09T13:24:00.015Z,28.15
2024-05-09T13:25:03.120Z,27.52
2024-05-09T13:26:08.502Z,27.84
2024-05-09T13:27:11.236Z,27.78
2024-05-09T13:28:14.060Z,26.81
2024-05-09T13:29:16.684Z,26.76
2024-05-09T13:30:29.489Z,27.93
2024-05-09T13:31:43.683Z,29.31
2024-05-09T13:32:46.429Z,29.72
2024-05-09T13:33:51.853Z,29.59
2024-05-09T13:34:54.611Z,30.10
2024-05-09T13:35:57.379Z,29.91
2024-05-09T13:37:00.068Z,29.15
2024-05-09T13:38:05.543Z,27.76
2024-05-09T13:39:08.173Z,28.66
2024-05-09T13:40:14.221Z,28.98
2024-05-09T13:41:17.828Z,29.68
2024-05-09T13:42:23.261Z,29.58
2024-05-09T13:43:26.228Z,29.26
2024-05-09T13:44:28.833Z,29.76
2024-05-09T13:45:31.543Z,29.07
2024-05-09T13:46:37.196Z,28.58
2024-05-09T13:47:42.730Z,30.08
2024-05-09T13:48:45.642Z,30.86
2024-05-09T13:49:48.904Z,31.15
2024-05-09T13:50:54.656Z,31.94
2024-05-09T13:51:57.413Z,33.09
2024-05-09T13:53:00.049Z,33.14
2024-05-09T13:54:05.314Z,32.09
2024-05-09T13:55:08.403Z,31.88
2024-05-09T13:56:11.979Z,31.93
2024-05-09T13:57:17.917Z,33.73
2024-05-09T13:58:20.769Z,34.52
2024-05-09T13:59:23.418Z,34.31
2024-05-09T14:00:38.183Z,32.07
2024-05-09T14:01:50.096Z,28.62
2024-05-09T14:02:55.549Z,27.82
2024-05-09T14:03:58.478Z,27.45
2024-05-09T14:05:04.026Z,29.10
2024-05-09T14:06:09.428Z,29.36
2024-05-09T14:07:13.851Z,28.87
2024-05-09T14:08:19.480Z,26.98
2024-05-09T14:09:25.203Z,26.86
2024-05-09T14:10:31.171Z,26.88
2024-05-09T14:11:34.893Z,27.71
2024-05-09T14:12:40.145Z,29.62
2024-05-09T14:13:42.778Z,31.66
2024-05-09T14:14:45.379Z,31.15